sensor_id;sensor_type;location;lat;lon;timestamp;temperature;humidity
15717;DHT22;7960;50.908;4.204;2022-08-21T00:00:19;18.60;99.90
15717;DHT22;7960;50.908;4.204;2022-08-21T00:02:47;18.50;99.90
15717;DHT22;7960;50.908;4.204;2022-08-21T00:05:15;18.60;99.90
15717;DHT22;7960;50.908;4.204;2022-08-21T00:07:43;18.70;99.90
15717;DHT22;7960;50.908;4.204;2022-08-21T00:10:10;18.70;99.90
15717;DHT22;7960;50.908;4.204;2022-08-21T00:12:38;18.70;99.90
15717;DHT22;7960;50.908;4.204;2022-08-21T00:15:08;18.60;99.90
15717;DHT22;7960;50.908;4.204;2022-08-21T00:17:36;18.60;99.90
15717;DHT22;7960;50.908;4.204;2022-08-21T00:20:05;18.50;99.90
15717;DHT22;7960;50.908;4.204;2022-08-21T00:22:32;18.40;99.90
15717;DHT22;7960;50.908;4.204;2022-08-21T00:25:01;18.20;99.90
15717;DHT22;7960;50.908;4.204;2022-08-21T00:27:28;18.10;99.90
15717;DHT22;7960;50.908;4.204;2022-08-21T00:29:54;18.00;99.90
15717;DHT22;7960;50.908;4.204;2022-08-21T00:32:22;18.10;99.90
15717;DHT22;7960;50.908;4.204;2022-08-21T00:34:50;18.20;99.90
15717;DHT22;7960;50.908;4.204;2022-08-21T00:37:18;18.10;99.90
15717;DHT22;7960;50.908;4.204;2022-08-21T00:39:45;18.00;99.90
15717;DHT22;7960;50.908;4.204;2022-08-21T00:42:14;18.00;99.90
15717;DHT22;7960;50.908;4.204;2022-08-21T00:44:41;18.10;99.90
15717;DHT22;7960;50.908;4.204;2022-08-21T00:47:09;18.00;99.90
15717;DHT22;7960;50.908;4.204;2022-08-21T00:49:37;17.90;99.90
15717;DHT22;7960;50.908;4.204;2022-08-21T00:52:06;18.00;99.90
15717;DHT22;7960;50.908;4.204;2022-08-21T00:54:35;18.00;99.90
15717;DHT22;7960;50.908;4.204;2022-08-21T00:57:07;18.00;99.90
15717;DHT22;7960;50.908;4.204;2022-08-21T00:59:38;17.90;99.90
15717;DHT22;7960;50.908;4.204;2022-08-21T01:02:08;17.90;99.90
15717;DHT22;7960;50.908;4.204;2022-08-21T01:04:36;17.70;99.90
15717;DHT22;7960;50.908;4.204;2022-08-21T01:07:03;17.70;99.90
15717;DHT22;7960;50.908;4.204;2022-08-21T01:09:30;17.60;99.90
15717;DHT22;7960;50.908;4.204;2022-08-21T01:11:57;17.60;99.90
15717;DHT22;7960;50.908;4.204;2022-08-21T01:14:25;17.50;99.90
15717;DHT22;7960;50.908;4.204;2022-08-21T01:16:54;17.40;99.90
15717;DHT22;7960;50.908;4.204;2022-08-21T01:19:23;17.50;99.90
15717;DHT22;7960;50.908;4.204;2022-08-21T01:21:52;17.50;99.90
15717;DHT22;7960;50.908;4.204;2022-08-21T01:24:19;17.50;99.90
15717;DHT22;7960;50.908;4.204;2022-08-21T01:26:48;17.60;99.90
15717;DHT22;7960;50.908;4.204;2022-08-21T01:29:22;17.60;99.90
15717;DHT22;7960;50.908;4.204;2022-08-21T01:31:50;17.50;99.90
15717;DHT22;7960;50.908;4.204;2022-08-21T01:34:17;17.30;99.90
15717;DHT22;7960;50.908;4.204;2022-08-21T01:36:45;17.40;99.90
15717;DHT22;7960;50.908;4.204;2022-08-21T01:39:14;17.40;99.90
15717;DHT22;7960;50.908;4.204;2022-08-21T01:41:41;17.30;99.90
15717;DHT22;7960;50.908;4.204;2022-08-21T01:44:08;17.40;99.90
15717;DHT22;7960;50.908;4.204;2022-08-21T01:46:35;17.50;99.90
15717;DHT22;7960;50.908;4.204;2022-08-21T01:49:03;17.40;99.90
15717;DHT22;7960;50.908;4.204;2022-08-21T01:51:30;17.40;99.90
15717;DHT22;7960;50.908;4.204;2022-08-21T01:53:56;17.50;99.90
15717;DHT22;7960;50.908;4.204;2022-08-21T01:56:25;17.50;99.90
15717;DHT22;7960;50.908;4.204;2022-08-21T01:58:53;17.40;99.90
15717;DHT22;7960;50.908;4.204;2022-08-21T02:01:20;17.20;99.90
15717;DHT22;7960;50.908;4.204;2022-08-21T02:03:47;17.20;99.90
15717;DHT22;7960;50.908;4.204;2022-08-21T02:06:15;17.20;99.90
15717;DHT22;7960;50.908;4.204;2022-08-21T02:08:43;17.20;99.90
15717;DHT22;7960;50.908;4.204;2022-08-21T02:11:10;17.10;99.90
15717;DHT22;7960;50.908;4.204;2022-08-21T02:13:39;17.20;99.90
15717;DHT22;7960;50.908;4.204;2022-08-21T02:16:06;17.30;99.90
15717;DHT22;7960;50.908;4.204;2022-08-21T02:18:33;17.40;99.90
15717;DHT22;7960;50.908;4.204;2022-08-21T02:21:00;17.40;99.90
15717;DHT22;7960;50.908;4.204;2022-08-21T02:23:27;17.30;99.90
15717;DHT22;7960;50.908;4.204;2022-08-21T02:25:54;17.30;99.90
15717;DHT22;7960;50.908;4.204;2022-08-21T02:28:22;17.10;99.90
15717;DHT22;7960;50.908;4.204;2022-08-21T02:30:50;17.10;99.90
15717;DHT22;7960;50.908;4.204;2022-08-21T02:33:18;17.10;99.90
15717;DHT22;7960;50.908;4.204;2022-08-21T02:35:47;17.00;99.90
15717;DHT22;7960;50.908;4.204;2022-08-21T02:38:16;17.00;99.90
15717;DHT22;7960;50.908;4.204;2022-08-21T02:40:45;17.00;99.90
15717;DHT22;7960;50.908;4.204;2022-08-21T02:43:13;16.90;99.90
15717;DHT22;7960;50.908;4.204;2022-08-21T02:45:40;16.90;99.90
15717;DHT22;7960;50.908;4.204;2022-08-21T02:48:11;16.90;99.90
15717;DHT22;7960;50.908;4.204;2022-08-21T02:50:42;17.00;99.90
15717;DHT22;7960;50.908;4.204;2022-08-21T02:53:11;17.10;99.90
15717;DHT22;7960;50.908;4.204;2022-08-21T02:55:43;17.10;99.90
15717;DHT22;7960;50.908;4.204;2022-08-21T02:58:10;17.00;99.90
15717;DHT22;7960;50.908;4.204;2022-08-21T03:00:38;16.90;99.90
15717;DHT22;7960;50.908;4.204;2022-08-21T03:03:05;16.80;99.90
15717;DHT22;7960;50.908;4.204;2022-08-21T03:05:35;16.90;99.90
15717;DHT22;7960;50.908;4.204;2022-08-21T03:08:05;16.90;99.90
15717;DHT22;7960;50.908;4.204;2022-08-21T03:10:32;17.00;99.90
15717;DHT22;7960;50.908;4.204;2022-08-21T03:12:59;16.90;99.90
15717;DHT22;7960;50.908;4.204;2022-08-21T03:15:27;16.90;99.90
15717;DHT22;7960;50.908;4.204;2022-08-21T03:17:54;16.80;99.90
15717;DHT22;7960;50.908;4.204;2022-08-21T03:20:24;16.80;99.90
15717;DHT22;7960;50.908;4.204;2022-08-21T03:22:53;16.70;99.90
15717;DHT22;7960;50.908;4.204;2022-08-21T03:25:22;16.70;99.90
15717;DHT22;7960;50.908;4.204;2022-08-21T03:27:49;16.60;99.90
15717;DHT22;7960;50.908;4.204;2022-08-21T03:30:18;16.60;99.90
15717;DHT22;7960;50.908;4.204;2022-08-21T03:32:45;16.50;99.90
15717;DHT22;7960;50.908;4.204;2022-08-21T03:35:13;16.50;99.90
15717;DHT22;7960;50.908;4.204;2022-08-21T03:37:40;16.50;99.90
15717;DHT22;7960;50.908;4.204;2022-08-21T03:40:10;16.50;99.90
15717;DHT22;7960;50.908;4.204;2022-08-21T03:42:37;16.50;99.90
15717;DHT22;7960;50.908;4.204;2022-08-21T03:45:06;16.20;99.90
15717;DHT22;7960;50.908;4.204;2022-08-21T03:47:33;16.20;99.90
15717;DHT22;7960;50.908;4.204;2022-08-21T03:50:00;16.20;99.90
15717;DHT22;7960;50.908;4.204;2022-08-21T03:52:27;16.20;99.90
15717;DHT22;7960;50.908;4.204;2022-08-21T03:54:55;16.10;99.90
15717;DHT22;7960;50.908;4.204;2022-08-21T03:57:24;16.20;99.90
15717;DHT22;7960;50.908;4.204;2022-08-21T03:59:50;16.20;99.90
15717;DHT22;7960;50.908;4.204;2022-08-21T04:02:19;16.30;99.90
15717;DHT22;7960;50.908;4.204;2022-08-21T04:04:47;16.30;99.90
15717;DHT22;7960;50.908;4.204;2022-08-21T04:07:14;16.20;99.90
15717;DHT22;7960;50.908;4.204;2022-08-21T04:09:41;16.30;99.90
15717;DHT22;7960;50.908;4.204;2022-08-21T04:12:08;16.30;99.90
15717;DHT22;7960;50.908;4.204;2022-08-21T04:14:37;16.40;99.90
15717;DHT22;7960;50.908;4.204;2022-08-21T04:17:04;16.40;99.90
15717;DHT22;7960;50.908;4.204;2022-08-21T04:19:31;16.30;99.90
15717;DHT22;7960;50.908;4.204;2022-08-21T04:21:58;16.20;99.90
15717;DHT22;7960;50.908;4.204;2022-08-21T04:24:24;16.10;99.90
15717;DHT22;7960;50.908;4.204;2022-08-21T04:26:51;16.10;99.90
15717;DHT22;7960;50.908;4.204;2022-08-21T04:29:18;16.00;99.90
15717;DHT22;7960;50.908;4.204;2022-08-21T04:31:47;15.80;99.90
15717;DHT22;7960;50.908;4.204;2022-08-21T04:34:14;15.90;99.90
15717;DHT22;7960;50.908;4.204;2022-08-21T04:36:41;15.90;99.90
15717;DHT22;7960;50.908;4.204;2022-08-21T04:39:07;16.00;99.90
15717;DHT22;7960;50.908;4.204;2022-08-21T04:41:34;16.00;99.90
15717;DHT22;7960;50.908;4.204;2022-08-21T04:44:02;16.00;99.90
15717;DHT22;7960;50.908;4.204;2022-08-21T04:46:29;16.00;99.90
15717;DHT22;7960;50.908;4.204;2022-08-21T04:48:58;15.90;99.90
15717;DHT22;7960;50.908;4.204;2022-08-21T04:51:27;15.90;99.90
15717;DHT22;7960;50.908;4.204;2022-08-21T04:53:59;15.90;99.90
15717;DHT22;7960;50.908;4.204;2022-08-21T04:56:30;15.70;99.90
15717;DHT22;7960;50.908;4.204;2022-08-21T04:59:01;15.50;99.90
15717;DHT22;7960;50.908;4.204;2022-08-21T05:01:32;15.60;99.90
15717;DHT22;7960;50.908;4.204;2022-08-21T05:04:04;15.70;99.90
15717;DHT22;7960;50.908;4.204;2022-08-21T05:06:36;15.80;99.90
15717;DHT22;7960;50.908;4.204;2022-08-21T05:09:04;15.50;99.90
15717;DHT22;7960;50.908;4.204;2022-08-21T05:11:32;15.40;99.90
15717;DHT22;7960;50.908;4.204;2022-08-21T05:14:00;15.40;99.90
15717;DHT22;7960;50.908;4.204;2022-08-21T05:16:27;15.40;99.90
15717;DHT22;7960;50.908;4.204;2022-08-21T05:18:54;15.40;99.90
15717;DHT22;7960;50.908;4.204;2022-08-21T05:21:22;15.50;99.90
15717;DHT22;7960;50.908;4.204;2022-08-21T05:23:49;15.50;99.90
15717;DHT22;7960;50.908;4.204;2022-08-21T05:26:16;15.50;99.90
15717;DHT22;7960;50.908;4.204;2022-08-21T05:28:44;15.60;99.90
15717;DHT22;7960;50.908;4.204;2022-08-21T05:31:11;15.50;99.90
15717;DHT22;7960;50.908;4.204;2022-08-21T05:33:38;15.60;99.90
15717;DHT22;7960;50.908;4.204;2022-08-21T05:36:05;15.60;99.90
15717;DHT22;7960;50.908;4.204;2022-08-21T05:38:33;15.50;99.90
15717;DHT22;7960;50.908;4.204;2022-08-21T05:41:00;15.50;99.90
15717;DHT22;7960;50.908;4.204;2022-08-21T05:43:29;15.50;99.90
15717;DHT22;7960;50.908;4.204;2022-08-21T05:45:55;15.50;99.90
15717;DHT22;7960;50.908;4.204;2022-08-21T05:48:24;15.50;99.90
15717;DHT22;7960;50.908;4.204;2022-08-21T05:50:52;15.60;99.90
15717;DHT22;7960;50.908;4.204;2022-08-21T05:53:20;15.60;99.90
15717;DHT22;7960;50.908;4.204;2022-08-21T05:55:49;15.60;99.90
15717;DHT22;7960;50.908;4.204;2022-08-21T05:58:18;15.70;99.90
15717;DHT22;7960;50.908;4.204;2022-08-21T06:00:46;15.80;99.90
15717;DHT22;7960;50.908;4.204;2022-08-21T06:03:14;15.90;99.90
15717;DHT22;7960;50.908;4.204;2022-08-21T06:05:42;16.00;99.90
15717;DHT22;7960;50.908;4.204;2022-08-21T06:08:09;16.00;99.90
15717;DHT22;7960;50.908;4.204;2022-08-21T06:10:36;16.20;99.90
15717;DHT22;7960;50.908;4.204;2022-08-21T06:13:05;16.30;99.90
15717;DHT22;7960;50.908;4.204;2022-08-21T06:15:32;16.40;99.90
15717;DHT22;7960;50.908;4.204;2022-08-21T06:17:58;16.40;99.90
15717;DHT22;7960;50.908;4.204;2022-08-21T06:20:26;16.50;99.90
15717;DHT22;7960;50.908;4.204;2022-08-21T06:22:53;16.60;99.90
15717;DHT22;7960;50.908;4.204;2022-08-21T06:25:20;16.60;99.90
15717;DHT22;7960;50.908;4.204;2022-08-21T06:27:47;16.70;99.90
15717;DHT22;7960;50.908;4.204;2022-08-21T06:30:16;16.80;99.90
15717;DHT22;7960;50.908;4.204;2022-08-21T06:32:43;16.60;99.90
15717;DHT22;7960;50.908;4.204;2022-08-21T06:35:10;16.80;99.90
15717;DHT22;7960;50.908;4.204;2022-08-21T06:37:38;16.90;99.90
15717;DHT22;7960;50.908;4.204;2022-08-21T06:40:07;17.00;99.90
15717;DHT22;7960;50.908;4.204;2022-08-21T06:42:34;17.00;99.90
15717;DHT22;7960;50.908;4.204;2022-08-21T06:45:01;17.10;99.90
15717;DHT22;7960;50.908;4.204;2022-08-21T06:47:29;17.20;99.90
15717;DHT22;7960;50.908;4.204;2022-08-21T06:49:56;17.20;99.90
15717;DHT22;7960;50.908;4.204;2022-08-21T06:52:23;17.40;99.90
15717;DHT22;7960;50.908;4.204;2022-08-21T06:54:50;17.50;99.90
15717;DHT22;7960;50.908;4.204;2022-08-21T06:57:16;17.60;99.90
15717;DHT22;7960;50.908;4.204;2022-08-21T06:59:43;17.60;99.90
15717;DHT22;7960;50.908;4.204;2022-08-21T07:02:11;17.70;99.90
15717;DHT22;7960;50.908;4.204;2022-08-21T07:04:39;17.80;99.90
15717;DHT22;7960;50.908;4.204;2022-08-21T07:07:06;18.00;99.90
15717;DHT22;7960;50.908;4.204;2022-08-21T07:09:33;18.00;99.90
15717;DHT22;7960;50.908;4.204;2022-08-21T07:12:00;18.00;99.90
15717;DHT22;7960;50.908;4.204;2022-08-21T07:14:27;18.10;99.90
15717;DHT22;7960;50.908;4.204;2022-08-21T07:16:55;18.10;99.90
15717;DHT22;7960;50.908;4.204;2022-08-21T07:19:22;18.20;99.90
15717;DHT22;7960;50.908;4.204;2022-08-21T07:21:51;18.20;99.90
15717;DHT22;7960;50.908;4.204;2022-08-21T07:24:19;18.30;99.90
15717;DHT22;7960;50.908;4.204;2022-08-21T07:26:45;18.40;99.90
15717;DHT22;7960;50.908;4.204;2022-08-21T07:29:12;18.50;99.90
15717;DHT22;7960;50.908;4.204;2022-08-21T07:31:40;18.50;99.90
15717;DHT22;7960;50.908;4.204;2022-08-21T07:34:07;18.60;99.90
15717;DHT22;7960;50.908;4.204;2022-08-21T07:36:34;18.60;99.90
15717;DHT22;7960;50.908;4.204;2022-08-21T07:39:03;18.70;99.90
15717;DHT22;7960;50.908;4.204;2022-08-21T07:41:30;18.60;99.90
15717;DHT22;7960;50.908;4.204;2022-08-21T07:43:58;18.70;99.90
15717;DHT22;7960;50.908;4.204;2022-08-21T07:46:25;18.80;99.90
15717;DHT22;7960;50.908;4.204;2022-08-21T07:48:53;19.00;99.90
15717;DHT22;7960;50.908;4.204;2022-08-21T07:51:23;19.10;99.90
15717;DHT22;7960;50.908;4.204;2022-08-21T07:53:52;19.10;99.90
15717;DHT22;7960;50.908;4.204;2022-08-21T07:56:21;19.00;99.90
15717;DHT22;7960;50.908;4.204;2022-08-21T07:58:48;19.00;99.90
15717;DHT22;7960;50.908;4.204;2022-08-21T08:01:16;19.10;99.90
15717;DHT22;7960;50.908;4.204;2022-08-21T08:03:43;19.00;99.90
15717;DHT22;7960;50.908;4.204;2022-08-21T08:06:10;19.10;99.90
15717;DHT22;7960;50.908;4.204;2022-08-21T08:08:38;19.10;99.90
15717;DHT22;7960;50.908;4.204;2022-08-21T08:11:06;19.20;99.90
15717;DHT22;7960;50.908;4.204;2022-08-21T08:13:40;19.30;99.90
15717;DHT22;7960;50.908;4.204;2022-08-21T08:16:07;19.30;99.90
15717;DHT22;7960;50.908;4.204;2022-08-21T08:18:34;19.30;99.90
15717;DHT22;7960;50.908;4.204;2022-08-21T08:21:01;19.30;99.90
15717;DHT22;7960;50.908;4.204;2022-08-21T08:23:28;19.30;99.90
15717;DHT22;7960;50.908;4.204;2022-08-21T08:25:56;19.30;99.90
15717;DHT22;7960;50.908;4.204;2022-08-21T08:28:23;19.40;99.90
15717;DHT22;7960;50.908;4.204;2022-08-21T08:30:51;19.40;99.90
15717;DHT22;7960;50.908;4.204;2022-08-21T08:33:18;19.40;99.90
15717;DHT22;7960;50.908;4.204;2022-08-21T08:35:46;19.40;99.90
15717;DHT22;7960;50.908;4.204;2022-08-21T08:38:14;19.60;99.90
15717;DHT22;7960;50.908;4.204;2022-08-21T08:40:47;19.70;99.90
15717;DHT22;7960;50.908;4.204;2022-08-21T08:43:17;19.80;99.90
15717;DHT22;7960;50.908;4.204;2022-08-21T08:45:48;19.90;99.90
15717;DHT22;7960;50.908;4.204;2022-08-21T08:48:31;20.10;99.90
15717;DHT22;7960;50.908;4.204;2022-08-21T08:51:00;20.10;99.90
15717;DHT22;7960;50.908;4.204;2022-08-21T08:53:32;20.20;99.90
15717;DHT22;7960;50.908;4.204;2022-08-21T08:56:01;20.30;99.90
15717;DHT22;7960;50.908;4.204;2022-08-21T08:58:32;20.30;99.90
15717;DHT22;7960;50.908;4.204;2022-08-21T09:01:00;20.40;99.90
15717;DHT22;7960;50.908;4.204;2022-08-21T09:03:29;20.50;99.90
15717;DHT22;7960;50.908;4.204;2022-08-21T09:06:02;20.70;99.90
15717;DHT22;7960;50.908;4.204;2022-08-21T09:08:44;20.70;99.90
15717;DHT22;7960;50.908;4.204;2022-08-21T09:11:23;20.80;99.90
15717;DHT22;7960;50.908;4.204;2022-08-21T09:14:00;20.90;99.90
15717;DHT22;7960;50.908;4.204;2022-08-21T09:16:40;21.00;99.90
15717;DHT22;7960;50.908;4.204;2022-08-21T09:19:27;21.10;99.90
15717;DHT22;7960;50.908;4.204;2022-08-21T09:22:03;21.30;99.90
15717;DHT22;7960;50.908;4.204;2022-08-21T09:24:42;21.50;99.90
15717;DHT22;7960;50.908;4.204;2022-08-21T09:27:15;21.70;99.90
15717;DHT22;7960;50.908;4.204;2022-08-21T09:29:45;22.10;99.90
15717;DHT22;7960;50.908;4.204;2022-08-21T09:32:16;22.30;99.90
15717;DHT22;7960;50.908;4.204;2022-08-21T09:34:55;22.20;99.90
15717;DHT22;7960;50.908;4.204;2022-08-21T09:37:23;22.10;99.90
15717;DHT22;7960;50.908;4.204;2022-08-21T09:39:50;21.70;99.90
15717;DHT22;7960;50.908;4.204;2022-08-21T09:42:22;21.70;99.90
15717;DHT22;7960;50.908;4.204;2022-08-21T09:45:05;21.50;99.90
15717;DHT22;7960;50.908;4.204;2022-08-21T09:47:33;21.50;99.90
15717;DHT22;7960;50.908;4.204;2022-08-21T09:50:10;21.40;99.90
15717;DHT22;7960;50.908;4.204;2022-08-21T09:52:48;21.40;99.90
15717;DHT22;7960;50.908;4.204;2022-08-21T09:55:19;21.50;99.90
15717;DHT22;7960;50.908;4.204;2022-08-21T09:58:04;21.70;99.90
15717;DHT22;7960;50.908;4.204;2022-08-21T10:00:34;22.00;99.90
15717;DHT22;7960;50.908;4.204;2022-08-21T10:03:09;22.10;99.90
15717;DHT22;7960;50.908;4.204;2022-08-21T10:05:39;22.30;99.90
15717;DHT22;7960;50.908;4.204;2022-08-21T10:08:17;22.50;99.90
15717;DHT22;7960;50.908;4.204;2022-08-21T10:10:44;22.70;99.90
15717;DHT22;7960;50.908;4.204;2022-08-21T10:13:16;22.90;99.90
15717;DHT22;7960;50.908;4.204;2022-08-21T10:15:53;23.10;99.90
15717;DHT22;7960;50.908;4.204;2022-08-21T10:18:29;23.20;99.90
15717;DHT22;7960;50.908;4.204;2022-08-21T10:21:04;23.20;99.90
15717;DHT22;7960;50.908;4.204;2022-08-21T10:23:42;22.60;99.90
15717;DHT22;7960;50.908;4.204;2022-08-21T10:26:20;22.40;99.90
15717;DHT22;7960;50.908;4.204;2022-08-21T10:28:51;22.60;99.90
15717;DHT22;7960;50.908;4.204;2022-08-21T10:31:27;22.80;99.90
15717;DHT22;7960;50.908;4.204;2022-08-21T10:34:09;22.70;99.90
15717;DHT22;7960;50.908;4.204;2022-08-21T10:36:58;22.90;99.90
15717;DHT22;7960;50.908;4.204;2022-08-21T10:39:32;22.80;99.90
15717;DHT22;7960;50.908;4.204;2022-08-21T10:42:13;22.60;99.90
15717;DHT22;7960;50.908;4.204;2022-08-21T10:44:52;22.90;99.90
15717;DHT22;7960;50.908;4.204;2022-08-21T10:47:30;23.20;99.90
15717;DHT22;7960;50.908;4.204;2022-08-21T10:50:08;23.20;99.90
15717;DHT22;7960;50.908;4.204;2022-08-21T10:52:51;23.10;99.90
15717;DHT22;7960;50.908;4.204;2022-08-21T10:55:23;23.30;99.90
15717;DHT22;7960;50.908;4.204;2022-08-21T10:57:56;23.30;99.90
15717;DHT22;7960;50.908;4.204;2022-08-21T11:00:28;23.30;99.90
15717;DHT22;7960;50.908;4.204;2022-08-21T11:03:01;23.60;99.90
15717;DHT22;7960;50.908;4.204;2022-08-21T11:05:32;23.30;99.90
15717;DHT22;7960;50.908;4.204;2022-08-21T11:08:05;23.20;99.90
15717;DHT22;7960;50.908;4.204;2022-08-21T11:10:37;23.10;99.90
15717;DHT22;7960;50.908;4.204;2022-08-21T11:13:11;23.10;99.90
15717;DHT22;7960;50.908;4.204;2022-08-21T11:15:45;23.10;99.90
15717;DHT22;7960;50.908;4.204;2022-08-21T11:18:23;23.20;99.90
15717;DHT22;7960;50.908;4.204;2022-08-21T11:21:03;23.30;99.90
15717;DHT22;7960;50.908;4.204;2022-08-21T11:23:38;23.70;99.90
15717;DHT22;7960;50.908;4.204;2022-08-21T11:26:10;24.20;99.90
15717;DHT22;7960;50.908;4.204;2022-08-21T11:28:45;24.20;99.90
15717;DHT22;7960;50.908;4.204;2022-08-21T11:31:31;24.20;99.90
15717;DHT22;7960;50.908;4.204;2022-08-21T11:34:07;23.80;99.90
15717;DHT22;7960;50.908;4.204;2022-08-21T11:36:44;24.20;99.90
15717;DHT22;7960;50.908;4.204;2022-08-21T11:39:21;24.40;99.90
15717;DHT22;7960;50.908;4.204;2022-08-21T11:41:59;24.40;99.90
15717;DHT22;7960;50.908;4.204;2022-08-21T11:44:37;24.60;99.90
15717;DHT22;7960;50.908;4.204;2022-08-21T11:47:13;24.60;99.90
15717;DHT22;7960;50.908;4.204;2022-08-21T11:49:53;24.50;99.90
15717;DHT22;7960;50.908;4.204;2022-08-21T11:52:27;24.50;99.90
15717;DHT22;7960;50.908;4.204;2022-08-21T11:55:02;24.50;99.90
15717;DHT22;7960;50.908;4.204;2022-08-21T11:57:34;24.50;99.90
15717;DHT22;7960;50.908;4.204;2022-08-21T12:00:06;24.50;99.90
15717;DHT22;7960;50.908;4.204;2022-08-21T12:02:36;24.50;99.90
15717;DHT22;7960;50.908;4.204;2022-08-21T12:05:07;24.30;99.90
15717;DHT22;7960;50.908;4.204;2022-08-21T12:07:38;24.90;99.90
15717;DHT22;7960;50.908;4.204;2022-08-21T12:10:09;25.20;99.90
15717;DHT22;7960;50.908;4.204;2022-08-21T12:12:38;25.40;99.90
15717;DHT22;7960;50.908;4.204;2022-08-21T12:15:24;25.10;99.90
15717;DHT22;7960;50.908;4.204;2022-08-21T12:17:55;24.80;99.90
15717;DHT22;7960;50.908;4.204;2022-08-21T12:20:32;24.70;99.90
15717;DHT22;7960;50.908;4.204;2022-08-21T12:23:05;24.40;99.90
15717;DHT22;7960;50.908;4.204;2022-08-21T12:25:39;24.70;99.90
15717;DHT22;7960;50.908;4.204;2022-08-21T12:28:08;25.20;99.90
15717;DHT22;7960;50.908;4.204;2022-08-21T12:30:39;25.70;99.90
15717;DHT22;7960;50.908;4.204;2022-08-21T12:33:22;25.60;99.90
15717;DHT22;7960;50.908;4.204;2022-08-21T12:35:52;25.10;99.90
15717;DHT22;7960;50.908;4.204;2022-08-21T12:38:22;24.60;99.90
15717;DHT22;7960;50.908;4.204;2022-08-21T12:40:54;24.40;99.90
15717;DHT22;7960;50.908;4.204;2022-08-21T12:43:26;24.00;99.90
15717;DHT22;7960;50.908;4.204;2022-08-21T12:45:55;23.90;99.90
15717;DHT22;7960;50.908;4.204;2022-08-21T12:48:26;23.80;99.90
15717;DHT22;7960;50.908;4.204;2022-08-21T12:50:56;23.90;99.90
15717;DHT22;7960;50.908;4.204;2022-08-21T12:53:29;23.90;99.90
15717;DHT22;7960;50.908;4.204;2022-08-21T12:56:03;24.00;99.90
15717;DHT22;7960;50.908;4.204;2022-08-21T12:58:31;24.00;99.90
15717;DHT22;7960;50.908;4.204;2022-08-21T13:01:02;23.90;99.90
15717;DHT22;7960;50.908;4.204;2022-08-21T13:03:30;24.00;99.90
15717;DHT22;7960;50.908;4.204;2022-08-21T13:05:58;24.10;99.90
15717;DHT22;7960;50.908;4.204;2022-08-21T13:08:26;24.20;99.90
15717;DHT22;7960;50.908;4.204;2022-08-21T13:10:59;24.20;99.90
15717;DHT22;7960;50.908;4.204;2022-08-21T13:13:29;24.30;99.90
15717;DHT22;7960;50.908;4.204;2022-08-21T13:15:58;24.40;99.90
15717;DHT22;7960;50.908;4.204;2022-08-21T13:18:29;24.70;99.90
15717;DHT22;7960;50.908;4.204;2022-08-21T13:21:04;25.00;99.90
15717;DHT22;7960;50.908;4.204;2022-08-21T13:23:32;25.10;99.90
15717;DHT22;7960;50.908;4.204;2022-08-21T13:25:59;25.30;99.90
15717;DHT22;7960;50.908;4.204;2022-08-21T13:28:34;25.80;99.90
15717;DHT22;7960;50.908;4.204;2022-08-21T13:31:07;25.50;99.90
15717;DHT22;7960;50.908;4.204;2022-08-21T13:33:37;25.20;99.90
15717;DHT22;7960;50.908;4.204;2022-08-21T13:36:11;25.10;99.90
15717;DHT22;7960;50.908;4.204;2022-08-21T13:38:41;24.90;99.90
15717;DHT22;7960;50.908;4.204;2022-08-21T13:41:16;25.30;99.90
15717;DHT22;7960;50.908;4.204;2022-08-21T13:43:49;25.70;99.90
15717;DHT22;7960;50.908;4.204;2022-08-21T13:46:18;26.20;99.90
15717;DHT22;7960;50.908;4.204;2022-08-21T13:48:47;26.60;99.90
15717;DHT22;7960;50.908;4.204;2022-08-21T13:51:14;27.10;99.90
15717;DHT22;7960;50.908;4.204;2022-08-21T13:53:46;27.30;99.90
15717;DHT22;7960;50.908;4.204;2022-08-21T13:56:28;26.70;99.90
15717;DHT22;7960;50.908;4.204;2022-08-21T13:58:58;26.70;99.90
15717;DHT22;7960;50.908;4.204;2022-08-21T14:01:28;26.40;99.90
15717;DHT22;7960;50.908;4.204;2022-08-21T14:03:59;26.10;99.90
15717;DHT22;7960;50.908;4.204;2022-08-21T14:06:32;25.40;99.90
15717;DHT22;7960;50.908;4.204;2022-08-21T14:09:07;25.30;99.90
15717;DHT22;7960;50.908;4.204;2022-08-21T14:11:35;25.10;99.90
15717;DHT22;7960;50.908;4.204;2022-08-21T14:14:16;24.80;99.90
15717;DHT22;7960;50.908;4.204;2022-08-21T14:16:53;25.00;99.90
15717;DHT22;7960;50.908;4.204;2022-08-21T14:19:23;25.20;99.90
15717;DHT22;7960;50.908;4.204;2022-08-21T14:21:50;25.40;99.90
15717;DHT22;7960;50.908;4.204;2022-08-21T14:24:27;25.50;99.90
15717;DHT22;7960;50.908;4.204;2022-08-21T14:26:56;25.90;99.90
15717;DHT22;7960;50.908;4.204;2022-08-21T14:29:27;25.90;99.90
15717;DHT22;7960;50.908;4.204;2022-08-21T14:31:56;25.70;99.90
15717;DHT22;7960;50.908;4.204;2022-08-21T14:34:25;25.50;99.90
15717;DHT22;7960;50.908;4.204;2022-08-21T14:36:55;25.30;99.90
15717;DHT22;7960;50.908;4.204;2022-08-21T14:39:22;25.30;99.90
15717;DHT22;7960;50.908;4.204;2022-08-21T14:41:49;25.40;99.90
15717;DHT22;7960;50.908;4.204;2022-08-21T14:44:19;25.30;99.90
15717;DHT22;7960;50.908;4.204;2022-08-21T14:46:47;25.30;99.90
15717;DHT22;7960;50.908;4.204;2022-08-21T14:49:14;25.10;99.90
15717;DHT22;7960;50.908;4.204;2022-08-21T14:51:41;25.10;99.90
15717;DHT22;7960;50.908;4.204;2022-08-21T14:54:08;25.20;99.90
15717;DHT22;7960;50.908;4.204;2022-08-21T14:56:36;25.20;99.90
15717;DHT22;7960;50.908;4.204;2022-08-21T14:59:05;25.30;99.90
15717;DHT22;7960;50.908;4.204;2022-08-21T15:01:34;25.10;99.90
15717;DHT22;7960;50.908;4.204;2022-08-21T15:04:03;24.90;99.90
15717;DHT22;7960;50.908;4.204;2022-08-21T15:06:30;24.90;99.90
15717;DHT22;7960;50.908;4.204;2022-08-21T15:08:57;24.70;99.90
15717;DHT22;7960;50.908;4.204;2022-08-21T15:11:24;24.70;99.90
15717;DHT22;7960;50.908;4.204;2022-08-21T15:13:56;24.70;99.90
15717;DHT22;7960;50.908;4.204;2022-08-21T15:16:26;24.60;99.90
15717;DHT22;7960;50.908;4.204;2022-08-21T15:18:53;24.60;99.90
15717;DHT22;7960;50.908;4.204;2022-08-21T15:21:22;24.50;99.90
15717;DHT22;7960;50.908;4.204;2022-08-21T15:23:49;24.40;99.90
15717;DHT22;7960;50.908;4.204;2022-08-21T15:26:16;24.20;99.90
15717;DHT22;7960;50.908;4.204;2022-08-21T15:28:43;24.10;99.90
15717;DHT22;7960;50.908;4.204;2022-08-21T15:31:10;24.20;99.90
15717;DHT22;7960;50.908;4.204;2022-08-21T15:33:37;24.20;99.90
15717;DHT22;7960;50.908;4.204;2022-08-21T15:36:04;24.10;99.90
15717;DHT22;7960;50.908;4.204;2022-08-21T15:38:33;24.10;99.90
15717;DHT22;7960;50.908;4.204;2022-08-21T15:41:01;24.20;99.90
15717;DHT22;7960;50.908;4.204;2022-08-21T15:43:30;24.30;99.90
15717;DHT22;7960;50.908;4.204;2022-08-21T15:45:59;24.30;99.90
15717;DHT22;7960;50.908;4.204;2022-08-21T15:48:26;24.30;99.90
15717;DHT22;7960;50.908;4.204;2022-08-21T15:50:53;24.20;99.90
15717;DHT22;7960;50.908;4.204;2022-08-21T15:53:20;24.20;99.90
15717;DHT22;7960;50.908;4.204;2022-08-21T15:55:49;24.10;99.90
15717;DHT22;7960;50.908;4.204;2022-08-21T15:58:17;24.20;99.90
15717;DHT22;7960;50.908;4.204;2022-08-21T16:00:45;24.30;99.90